Meteorología y climatología de Navarra
Datos de la estación - Meteo Navarra

Estación de Arangoiti GN

Altitud 1353 m.


Datos desde el 07/12/2018 hasta el 08/12/2018 en horario solar
Los datos son PROVISIONALES

Anterior Página 1 de 1 Siguiente Descargar: Formato para Excel 2000 o superior   Formato csv   Formato para OpenOffice Calc
Fecha Temperatura Humedad relativa Radiación global Insolación Precipitación Vel. viento 10 m Vel. viento 10 m Dir. viento 10 m
ºC % W/m² s l/m² m/s km/h º
07/12/2018 0:00 2.1 98 0.0 0 0.0 9.6 34.6 12
07/12/2018 0:10 2.3 98 0.0 0 0.0 10.0 36.1 15
07/12/2018 0:20 1.8 98 0.0 0 0.0 8.8 31.7 13
07/12/2018 0:30 1.7 98 0.0 0 0.0 6.9 25.0 13
07/12/2018 0:40 1.9 99 0.0 0 0.0 6.5 23.2 12
07/12/2018 0:50 2.3 99 0.0 0 0.0 6.7 24.0 7
07/12/2018 1:00 1.5 99 0.0 0 0.0 8.0 28.8 6
07/12/2018 1:10 1.6 99 0.0 0 0.0 7.5 27.1 11
07/12/2018 1:20 1.4 99 0.0 0 0.0 5.6 20.2 13
07/12/2018 1:30 1.4 99 0.0 0 0.0 5.5 19.9 13
07/12/2018 1:40 1.5 100 0.0 0 0.0 5.9 21.3 8
07/12/2018 1:50 1.2 100 0.0 0 0.0 5.9 21.3 10
07/12/2018 2:00 1.7 100 0.0 0 0.0 5.3 19.2 6
07/12/2018 2:10 1.6 100 0.0 0 0.0 5.9 21.1 5
07/12/2018 2:20 1.1 100 0.0 0 0.0 5.5 19.7 4
07/12/2018 2:30 1.2 100 0.0 0 0.0 5.0 17.9 5
07/12/2018 2:40 1.5 100 0.0 0 0.0 4.8 17.4 8
07/12/2018 2:50 1.0 100 0.0 0 0.0 5.5 19.9 1
07/12/2018 3:00 1.2 100 0.0 0 0.0 6.9 24.8 2
07/12/2018 3:10 1.6 100 0.0 0 0.0 5.9 21.1 1
07/12/2018 3:20 1.6 100 0.0 0 0.0 6.5 23.5 1
07/12/2018 3:30 1.6 100 0.0 0 0.0 7.6 27.4 2
07/12/2018 3:40 1.6 100 0.0 0 0.0 7.9 28.5 1
07/12/2018 3:50 1.3 100 0.0 0 0.0 8.5 30.7 1
07/12/2018 4:00 2.0 98 0.0 0 0.0 9.1 32.8 4
07/12/2018 4:10 1.7 98 0.0 0 0.0 9.5 34.2 4
07/12/2018 4:20 1.4 97 0.0 0 0.0 9.4 33.9 6
07/12/2018 4:30 1.9 95 0.0 0 0.0 9.1 32.7 11
07/12/2018 4:40 1.6 94 0.0 0 0.0 9.0 32.3 16
07/12/2018 4:50 2.3 79 0.0 0 0.0 9.6 34.6 12
07/12/2018 5:00 3.0 74 0.0 0 0.0 9.1 32.8 15
07/12/2018 5:10 2.5 75 0.0 0 0.0 8.1 29.1 14
07/12/2018 5:20 3.1 73 0.0 0 0.0 7.7 27.9 14
07/12/2018 5:30 3.1 69 0.0 0 0.0 8.2 29.6 11
07/12/2018 5:40 2.9 71 0.0 0 0.0 8.3 30.0 10
07/12/2018 5:50 3.6 68 0.0 0 0.0 7.7 27.7 8
07/12/2018 6:00 2.7 70 0.0 0 0.0 7.9 28.3 8
07/12/2018 6:10 2.9 67 0.0 0 0.0 7.9 28.3 6
07/12/2018 6:20 2.9 68 0.0 0 0.0 7.8 28.0 4
07/12/2018 6:30 2.8 69 0.0 0 0.0 7.8 27.9 4
07/12/2018 6:40 2.7 73 0.0 0 0.0 7.5 26.9 9
07/12/2018 6:50 2.8 65 0.0 0 0.0 8.0 28.6 8
07/12/2018 7:00 3.0 61 0.0 0 0.0 8.1 29.2 4
07/12/2018 7:10 2.9 63 0.0 0 0.0 8.7 31.4 2
07/12/2018 7:20 2.7 65 0.0 0 0.0 8.2 29.6 4
07/12/2018 7:30 3.0 67 11.2 0 0.0 8.0 28.7 5
07/12/2018 7:40 2.5 69 29.4 304 0.0 8.1 29.1 6
07/12/2018 7:50 3.3 65 40.4 600 0.0 7.9 28.3 6
07/12/2018 8:00 3.2 61 63.2 600 0.0 8.4 30.1 6
07/12/2018 8:10 3.3 66 90.8 600 0.0 8.8 31.6 9
07/12/2018 8:20 3.6 63 43.4 80 0.0 9.4 33.7 9
07/12/2018 8:30 3.4 62 142.1 600 0.0 9.5 34.1 10
07/12/2018 8:40 4.0 62 168.3 600 0.0 9.3 33.5 12
07/12/2018 8:50 3.3 65 193.1 600 0.0 9.7 35.0 14
07/12/2018 9:00 3.5 62 216.9 600 0.0 10.2 36.8 13
07/12/2018 9:10 4.2 63 240.3 600 0.0 10.4 37.4 12
07/12/2018 9:20 4.4 67 262.3 600 0.0 10.4 37.4 10
07/12/2018 9:30 4.5 70 283.7 600 0.0 10.5 37.8 10
07/12/2018 9:40 4.5 72 304.0 600 0.0 10.6 38.0 11
07/12/2018 9:50 5.1 76 323.7 600 0.0 10.5 37.8 13
07/12/2018 10:00 5.3 78 342.3 600 0.0 10.5 37.9 13
07/12/2018 10:10 5.6 79 360.6 600 0.0 9.7 35.0 14
07/12/2018 10:20 6.2 79 376.7 600 0.0 9.7 34.8 14
07/12/2018 10:30 5.7 79 391.5 600 0.0 9.1 32.8 17
07/12/2018 10:40 6.0 79 405.2 600 0.0 9.2 33.2 17
07/12/2018 10:50 6.8 80 418.3 600 0.0 9.6 34.6 14
07/12/2018 11:00 6.8 79 429.6 600 0.0 8.8 31.7 11
07/12/2018 11:10 6.6 78 439.4 600 0.0 7.7 27.8 12
07/12/2018 11:20 6.6 78 446.4 600 0.0 7.2 26.1 14
07/12/2018 11:30 6.6 78 450.2 600 0.0 6.9 24.9 16
07/12/2018 11:40 6.7 77 452.0 600 0.0 7.2 25.8 15
07/12/2018 11:50 6.6 77 452.3 600 0.0 6.8 24.4 13
07/12/2018 12:00 6.7 76 453.9 600 0.0 6.4 23.1 11
07/12/2018 12:10 6.6 76 454.7 600 0.0 6.3 22.7 9
07/12/2018 12:20 7.1 76 425.7 600 0.0 6.8 24.3 7
07/12/2018 12:30 6.7 77 442.8 600 0.0 7.1 25.5 9
07/12/2018 12:40 6.4 75 436.0 600 0.0 7.7 27.6 6
07/12/2018 12:50 6.6 76 428.8 600 0.0 7.6 27.4 8
07/12/2018 13:00 6.4 72 419.3 600 0.0 7.0 25.1 5
07/12/2018 13:10 7.0 73 407.5 600 0.0 6.8 24.6 5
07/12/2018 13:20 6.4 72 397.6 600 0.0 6.6 23.9 3
07/12/2018 13:30 6.7 74 311.9 488 0.0 6.8 24.3 3
07/12/2018 13:40 6.4 75 235.4 600 0.0 7.1 25.4 7
07/12/2018 13:50 6.3 72 178.3 306 0.0 7.3 26.4 11
07/12/2018 14:00 6.3 71 182.0 354 0.0 8.0 28.7 13
07/12/2018 14:10 5.9 71 206.5 574 0.0 8.1 29.3 13
07/12/2018 14:20 6.1 72 194.8 600 0.0 8.1 29.1 15
07/12/2018 14:30 6.3 72 252.8 552 0.0 8.9 31.9 13
07/12/2018 14:40 6.8 74 254.0 598 0.0 8.5 30.5 13
07/12/2018 14:50 6.1 74 234.6 600 0.0 8.9 32.0 15
07/12/2018 15:00 7.0 72 218.0 558 0.0 11.0 39.5 10
07/12/2018 15:10 6.8 71 109.2 232 0.0 11.0 39.5 8
07/12/2018 15:20 6.3 74 108.2 372 0.0 10.8 39.0 5
07/12/2018 15:30 6.5 74 118.9 600 0.0 12.0 43.2 3
07/12/2018 15:40 6.4 74 115.1 590 0.0 12.7 45.5 4
07/12/2018 15:50 5.7 79 47.3 66 0.0 13.0 46.6 11
07/12/2018 16:00 5.7 89 25.8 0 0.0 13.2 47.6 10
07/12/2018 16:10 5.5 94 20.5 0 0.0 13.0 46.8 10
07/12/2018 16:20 5.7 95 11.0 0 0.0 12.3 44.1 9
07/12/2018 16:30 5.5 96 0.0 0 0.0 11.5 41.3 8
07/12/2018 16:40 5.3 97 0.0 0 0.0 11.3 40.6 5
07/12/2018 16:50 5.2 97 0.0 0 0.0 11.4 40.9 4
07/12/2018 17:00 5.0 99 0.0 0 0.0 12.3 44.2 2
07/12/2018 17:10 4.6 99 0.0 0 0.0 12.1 43.5 2
07/12/2018 17:20 5.0 100 0.0 0 0.0 12.1 43.7 2
07/12/2018 17:30 4.6 100 0.0 0 0.0 11.8 42.4 3
07/12/2018 17:40 5.0 100 0.0 0 0.0 11.3 40.5 5
07/12/2018 17:50 5.0 100 0.0 0 0.0 11.5 41.4 2
07/12/2018 18:00 4.8 100 0.0 0 0.0 11.2 40.4 3
07/12/2018 18:10 5.3 100 0.0 0 0.0 11.9 42.7 2
07/12/2018 18:20 5.0 100 0.0 0 0.0 12.2 43.8 2
07/12/2018 18:30 5.0 100 0.0 0 0.0 12.4 44.5 5
07/12/2018 18:40 4.9 100 0.0 0 0.0 12.9 46.5 4
07/12/2018 18:50 5.0 100 0.0 0 0.0 13.6 48.8 3
07/12/2018 19:00 4.8 100 0.0 0 0.0 13.2 47.7 5
07/12/2018 19:10 5.2 100 0.0 0 0.0 14.0 50.3 6
07/12/2018 19:20 4.8 100 0.0 0 0.0 14.2 50.9 8
07/12/2018 19:30 5.2 100 0.0 0 0.0 14.2 51.0 5
07/12/2018 19:40 5.3 100 0.0 0 0.0 13.1 47.2 10
07/12/2018 19:50 5.5 100 0.0 0 0.0 13.8 49.7 9
07/12/2018 20:00 4.8 100 0.0 0 0.0 13.8 49.8 9
07/12/2018 20:10 4.8 100 0.0 0 0.1 13.9 50.2 10
07/12/2018 20:20 5.0 100 0.0 0 0.0 14.3 51.4 9
07/12/2018 20:30 5.2 100 0.0 0 0.0 15.0 54.0 8
07/12/2018 20:40 4.8 100 0.0 0 0.0 13.5 48.7 6
07/12/2018 20:50 4.8 100 0.0 0 0.0 12.9 46.5 11
07/12/2018 21:00 4.1 100 0.0 0 0.0 13.6 49.1 12
07/12/2018 21:10 3.5 100 0.0 0 0.0 14.2 51.1 13
07/12/2018 21:20 3.3 100 0.0 0 0.0 14.3 51.3 14
07/12/2018 21:30 2.8 100 0.0 0 0.0 15.2 54.6 13
07/12/2018 21:40 2.9 100 0.0 0 0.0 15.0 54.0 17
07/12/2018 21:50 2.3 100 0.0 0 0.0 14.6 52.4 13
07/12/2018 22:00 2.2 100 0.0 0 0.0 14.1 50.8 17
07/12/2018 22:10 2.5 100 0.0 0 0.0 13.2 47.5 15
07/12/2018 22:20 2.1 100 0.0 0 0.0 13.7 49.2 14
07/12/2018 22:30 2.2 100 0.0 0 0.0 13.1 47.2 16
07/12/2018 22:40 2.2 100 0.0 0 0.0 13.5 48.6 11
07/12/2018 22:50 2.1 100 0.0 0 0.0 13.4 48.1 12
07/12/2018 23:00 2.3 100 0.0 0 0.0 14.1 50.8 9
07/12/2018 23:10 2.4 100 0.0 0 0.0 14.0 50.4 9
07/12/2018 23:20 2.5 100 0.0 0 0.0 14.1 50.7 11
07/12/2018 23:30 2.1 100 0.0 0 0.0 13.6 48.9 13
07/12/2018 23:40 2.1 100 0.0 0 0.0 13.3 48.0 13
07/12/2018 23:50 2.4 100 0.0 0 0.0 13.6 48.9 13
Anterior Página 1 de 1 Siguiente
Los datos de precipitación registrados en estaciones que están en cumbres son inferiores a lo real, como consecuencia del efecto del viento y de la nieve.


NOTA: Tipo de datos según el color:
   - Valores diarios o 10 minutos correctos
   - Valores diarios calculados a partir de un número de datos 10 minutos menor que 144 y mayor que 120, o de un número de datos semihorarios menor que 48 y mayor que 40 (caso de las estaciones de Riegos de Navarra y del MARM)
   - Valores diez minutos estimados


Contacto        Enlaces        Aviso legal